createdAt,value
2023-03-12T00:01:23.451Z,16.00
2023-03-12T00:03:52.196Z,16.90
2023-03-12T00:06:21.373Z,14.60
2023-03-12T00:08:49.917Z,13.30
2023-03-12T00:11:20.229Z,12.20
2023-03-12T00:13:53.784Z,12.00
2023-03-12T00:16:22.850Z,12.70
2023-03-12T00:18:53.968Z,15.00
2023-03-12T00:21:23.190Z,10.50
2023-03-12T00:23:52.358Z,10.70
2023-03-12T00:26:21.813Z,10.20
2023-03-12T00:28:50.829Z,11.70
2023-03-12T00:31:21.743Z,10.30
2023-03-12T00:33:50.687Z,10.40
2023-03-12T00:36:24.486Z,9.90
2023-03-12T00:38:53.274Z,10.40
2023-03-12T00:41:23.415Z,11.10
2023-03-12T00:43:52.811Z,7.80
2023-03-12T00:46:22.083Z,10.50
2023-03-12T00:48:50.384Z,9.60
2023-03-12T00:51:19.016Z,10.40
2023-03-12T00:53:47.343Z,11.00
2023-03-12T00:56:16.001Z,11.80
2023-03-12T00:58:44.339Z,9.80
2023-03-12T01:01:12.771Z,9.50
2023-03-12T01:03:41.068Z,9.40
2023-03-12T01:06:09.646Z,9.80
2023-03-12T01:08:38.396Z,11.00
2023-03-12T01:11:06.590Z,12.20
2023-03-12T01:13:34.780Z,11.40
2023-03-12T01:16:03.064Z,10.20
2023-03-12T01:18:31.347Z,11.90
2023-03-12T01:20:59.892Z,11.80
2023-03-12T01:23:28.510Z,11.00
2023-03-12T01:25:56.900Z,12.80
2023-03-12T01:28:26.242Z,12.30
2023-03-12T01:30:54.524Z,10.90
2023-03-12T01:33:23.092Z,11.10
2023-03-12T01:35:51.657Z,9.20
2023-03-12T01:38:21.030Z,10.90
2023-03-12T01:40:49.518Z,10.00
2023-03-12T01:43:31.527Z,12.50
2023-03-12T01:46:00.517Z,11.50
2023-03-12T01:49:01.580Z,11.30
2023-03-12T01:51:42.519Z,13.90
2023-03-12T01:54:17.129Z,13.60
2023-03-12T01:56:47.042Z,11.90
2023-03-12T01:59:27.957Z,11.90
2023-03-12T02:01:56.217Z,10.50
2023-03-12T02:04:27.264Z,13.00
2023-03-12T02:07:05.436Z,10.30
2023-03-12T02:09:36.337Z,12.00
2023-03-12T02:12:05.493Z,10.50
2023-03-12T02:14:34.204Z,13.90
2023-03-12T02:17:02.563Z,11.20
2023-03-12T02:20:08.205Z,11.10
2023-03-12T02:22:38.968Z,11.80
2023-03-12T02:25:22.224Z,12.00
2023-03-12T02:27:51.684Z,11.40
2023-03-12T02:30:21.306Z,11.60
2023-03-12T02:32:52.091Z,9.70
2023-03-12T02:35:20.442Z,14.30
2023-03-12T02:37:55.171Z,9.90
2023-03-12T02:40:30.165Z,11.70
2023-03-12T02:42:58.650Z,11.30
2023-03-12T02:45:27.616Z,10.90
2023-03-12T02:47:56.058Z,10.30
2023-03-12T02:50:24.358Z,10.10
2023-03-12T02:52:52.647Z,9.00
2023-03-12T02:55:20.957Z,6.60
2023-03-12T02:57:49.387Z,8.20
2023-03-12T03:00:18.412Z,6.10
2023-03-12T03:02:50.185Z,5.10
2023-03-12T03:05:20.616Z,6.20
2023-03-12T03:07:48.909Z,8.10
2023-03-12T03:10:17.718Z,5.00
2023-03-12T03:12:46.213Z,5.10
2023-03-12T03:15:14.771Z,4.90
2023-03-12T03:17:43.087Z,4.90
2023-03-12T03:20:12.138Z,4.00
2023-03-12T03:22:40.616Z,6.60
2023-03-12T03:25:10.751Z,5.40
2023-03-12T03:27:38.936Z,5.50
2023-03-12T03:30:08.105Z,6.10
2023-03-12T03:32:39.069Z,7.40
2023-03-12T03:35:08.011Z,4.60
2023-03-12T03:37:36.469Z,6.30
2023-03-12T03:40:05.978Z,5.70
2023-03-12T03:42:34.985Z,6.70
2023-03-12T03:45:03.704Z,6.60
2023-03-12T03:47:32.054Z,8.10
2023-03-12T03:50:00.438Z,9.60
2023-03-12T03:52:29.252Z,8.50
2023-03-12T03:54:59.509Z,6.90
2023-03-12T03:57:28.232Z,7.40
2023-03-12T04:00:00.904Z,7.10
2023-03-12T04:02:30.819Z,4.40
2023-03-12T04:05:00.212Z,5.30
2023-03-12T04:07:29.137Z,4.70
2023-03-12T04:09:58.354Z,5.50
2023-03-12T04:12:28.188Z,8.60
2023-03-12T04:14:56.431Z,7.30
2023-03-12T04:17:25.000Z,7.80
2023-03-12T04:19:53.533Z,7.70
2023-03-12T04:22:21.903Z,5.70
2023-03-12T04:24:50.525Z,4.50
2023-03-12T04:27:18.746Z,3.90
2023-03-12T04:29:47.047Z,4.50
2023-03-12T04:32:15.433Z,6.00
2023-03-12T04:34:43.778Z,8.60
2023-03-12T04:37:15.353Z,4.50
2023-03-12T04:39:44.390Z,5.10
2023-03-12T04:42:12.800Z,4.90
2023-03-12T04:44:41.945Z,3.00
2023-03-12T04:47:10.446Z,5.20
2023-03-12T04:49:39.820Z,7.80
2023-03-12T04:52:08.530Z,5.10
2023-03-12T04:54:37.584Z,4.80
2023-03-12T04:57:06.261Z,6.80
2023-03-12T04:59:34.494Z,5.20
2023-03-12T05:02:03.022Z,3.60
2023-03-12T05:04:33.627Z,4.40
2023-03-12T05:07:03.333Z,6.40
2023-03-12T05:09:31.959Z,5.00
2023-03-12T05:12:00.536Z,4.50
2023-03-12T05:14:28.822Z,6.20
2023-03-12T05:16:57.254Z,6.90
2023-03-12T05:19:25.566Z,4.50
2023-03-12T05:21:53.721Z,4.60
2023-03-12T05:24:22.658Z,4.40
2023-03-12T05:26:50.910Z,4.30
2023-03-12T05:29:22.250Z,6.30
2023-03-12T05:31:51.083Z,3.70
2023-03-12T05:34:19.529Z,4.80
2023-03-12T05:36:48.211Z,6.60
2023-03-12T05:39:20.375Z,6.50
2023-03-12T05:41:49.022Z,5.30
2023-03-12T05:44:19.071Z,6.10
2023-03-12T05:46:51.258Z,3.90
2023-03-12T05:49:20.438Z,4.40
2023-03-12T05:51:50.228Z,4.50
2023-03-12T05:54:18.942Z,8.70
2023-03-12T05:56:48.490Z,9.60
2023-03-12T05:59:16.883Z,6.10
2023-03-12T06:01:45.322Z,4.90
2023-03-12T06:04:13.710Z,4.20
2023-03-12T06:06:42.412Z,3.00
2023-03-12T06:09:10.690Z,3.60
2023-03-12T06:11:39.201Z,4.50
2023-03-12T06:14:07.561Z,6.10
2023-03-12T06:16:37.489Z,5.50
2023-03-12T06:19:07.784Z,4.30
2023-03-12T06:21:36.458Z,4.60
2023-03-12T06:24:07.027Z,5.30
2023-03-12T06:26:43.804Z,4.90
2023-03-12T06:29:12.118Z,2.50
2023-03-12T06:31:42.293Z,4.50
2023-03-12T06:34:10.869Z,4.70
2023-03-12T06:36:39.044Z,8.00
2023-03-12T06:39:08.328Z,8.40
2023-03-12T06:41:37.055Z,8.70
2023-03-12T06:44:06.524Z,9.00
2023-03-12T06:46:35.120Z,5.20
2023-03-12T06:49:03.404Z,7.30
2023-03-12T06:51:31.619Z,4.30
2023-03-12T06:54:02.789Z,6.10
2023-03-12T06:56:31.659Z,3.00
2023-03-12T06:59:00.051Z,7.60
2023-03-12T07:01:28.277Z,4.60
2023-03-12T07:03:56.542Z,4.60
2023-03-12T07:06:25.712Z,3.00
2023-03-12T07:08:54.431Z,4.90
2023-03-12T07:11:22.835Z,4.60
2023-03-12T07:13:51.783Z,5.10
2023-03-12T07:16:20.182Z,4.20
2023-03-12T07:18:48.651Z,4.20
2023-03-12T07:21:22.853Z,5.40
2023-03-12T07:23:52.133Z,6.10
2023-03-12T07:26:21.380Z,8.00
2023-03-12T07:28:49.957Z,4.80
2023-03-12T07:31:18.431Z,3.00
2023-03-12T07:33:47.004Z,6.80
2023-03-12T07:36:15.416Z,5.10
2023-03-12T07:38:43.872Z,4.30
2023-03-12T07:41:12.409Z,5.60
2023-03-12T07:43:40.747Z,5.30
2023-03-12T07:46:09.281Z,5.10
2023-03-12T07:48:37.756Z,7.80
2023-03-12T07:51:07.167Z,10.70
2023-03-12T07:53:35.531Z,7.90
2023-03-12T07:56:03.927Z,6.10
2023-03-12T07:58:32.316Z,8.60
2023-03-12T08:01:00.799Z,8.70
2023-03-12T08:03:30.850Z,5.00
2023-03-12T08:06:01.585Z,5.10
2023-03-12T08:08:31.431Z,5.50
2023-03-12T08:11:00.604Z,7.00
2023-03-12T08:13:28.985Z,5.90
2023-03-12T08:15:57.219Z,4.40
2023-03-12T08:18:26.108Z,7.30
2023-03-12T08:20:54.859Z,9.00
2023-03-12T08:23:24.299Z,11.80
2023-03-12T08:25:53.601Z,7.90
2023-03-12T08:28:23.495Z,6.10
2023-03-12T08:30:56.064Z,5.60
2023-03-12T08:33:24.711Z,6.20
2023-03-12T08:35:53.104Z,6.60
2023-03-12T08:38:21.575Z,6.70
2023-03-12T08:40:58.542Z,4.00
2023-03-12T08:43:29.398Z,4.70
2023-03-12T08:46:02.674Z,2.80
2023-03-12T08:48:32.880Z,4.30
2023-03-12T08:51:04.366Z,4.60
2023-03-12T08:53:34.547Z,8.50
2023-03-12T08:56:03.693Z,6.10
2023-03-12T08:58:32.565Z,7.30
2023-03-12T09:03:43.500Z,11.10
2023-03-12T09:06:16.891Z,6.30
2023-03-12T09:08:46.356Z,4.30
2023-03-12T09:11:15.567Z,4.30
2023-03-12T09:14:16.847Z,3.80
2023-03-12T09:16:32.987Z,3.40
2023-03-12T09:19:01.340Z,4.50
2023-03-12T09:21:29.568Z,4.30
2023-03-12T09:23:57.927Z,5.00
2023-03-12T09:26:26.975Z,4.20
2023-03-12T09:28:55.335Z,4.40
2023-03-12T09:31:24.038Z,6.60
2023-03-12T09:33:52.877Z,8.10
2023-03-12T09:36:21.078Z,5.70
2023-03-12T09:38:49.244Z,4.60
2023-03-12T09:41:27.179Z,5.30
2023-03-12T09:44:02.006Z,7.10
2023-03-12T09:46:40.482Z,6.50
2023-03-12T09:49:19.760Z,7.50
2023-03-12T09:51:54.162Z,9.80
2023-03-12T09:54:38.605Z,6.00
2023-03-12T09:57:14.826Z,6.90
2023-03-12T09:59:44.108Z,7.90
2023-03-12T10:02:33.830Z,8.90
2023-03-12T10:05:12.080Z,7.70
2023-03-12T10:07:54.502Z,9.60
2023-03-12T10:10:37.080Z,11.10
2023-03-12T10:13:32.699Z,7.10
2023-03-12T10:16:22.223Z,10.20
2023-03-12T10:19:16.333Z,8.80
2023-03-12T10:21:53.423Z,10.00
2023-03-12T10:24:52.083Z,9.60
2023-03-12T10:27:22.924Z,11.10
2023-03-12T10:29:53.706Z,8.30
2023-03-12T10:32:42.480Z,8.20
2023-03-12T10:35:19.352Z,8.60
2023-03-12T10:37:55.230Z,7.30
2023-03-12T10:40:26.833Z,7.60
2023-03-12T10:42:55.725Z,7.10
2023-03-12T10:45:35.508Z,5.50
2023-03-12T10:48:09.868Z,5.70
2023-03-12T10:50:40.469Z,5.70
2023-03-12T10:53:22.859Z,5.90
2023-03-12T10:56:00.356Z,7.80
2023-03-12T10:58:34.186Z,5.30
2023-03-12T11:01:05.727Z,5.70
2023-03-12T11:03:34.291Z,8.50
2023-03-12T11:06:07.074Z,8.00
2023-03-12T11:08:37.519Z,6.70
2023-03-12T11:11:06.166Z,5.00
2023-03-12T11:13:41.903Z,4.90
2023-03-12T11:16:19.252Z,7.10
2023-03-12T11:19:05.245Z,5.50
2023-03-12T11:21:37.288Z,6.80
2023-03-12T11:24:13.306Z,8.90
2023-03-12T11:26:54.629Z,8.70
2023-03-12T11:29:33.365Z,6.40
2023-03-12T11:32:30.221Z,6.20
2023-03-12T11:34:59.674Z,5.50
2023-03-12T11:37:42.297Z,4.20
2023-03-12T11:40:21.277Z,5.70
2023-03-12T11:42:55.522Z,5.10
2023-03-12T11:45:32.116Z,5.30
2023-03-12T11:48:34.249Z,6.30
2023-03-12T11:51:14.776Z,8.90
2023-03-12T11:53:46.318Z,9.40
2023-03-12T11:56:14.706Z,6.10
2023-03-12T11:59:00.920Z,7.00
2023-03-12T12:01:56.498Z,8.60
2023-03-12T12:04:25.016Z,4.80
2023-03-12T12:07:13.593Z,4.80
2023-03-12T12:09:56.568Z,4.80
2023-03-12T12:12:41.449Z,6.60
2023-03-12T12:15:10.220Z,6.30
2023-03-12T12:17:51.268Z,4.20
2023-03-12T12:20:26.936Z,4.00
2023-03-12T12:23:23.014Z,4.70
2023-03-12T12:26:12.490Z,13.20
2023-03-12T12:28:55.274Z,7.10
2023-03-12T12:31:49.857Z,4.80
2023-03-12T12:34:32.869Z,4.20
2023-03-12T12:37:25.191Z,3.60
2023-03-12T12:40:10.746Z,3.60
2023-03-12T12:43:07.137Z,2.40
2023-03-12T12:45:41.195Z,4.10
2023-03-12T12:48:25.333Z,3.60
2023-03-12T12:53:44.541Z,4.10
2023-03-12T12:56:22.487Z,5.20
2023-03-12T12:58:53.884Z,3.50
2023-03-12T13:01:22.274Z,4.70
2023-03-12T13:03:50.934Z,3.10
2023-03-12T13:06:19.113Z,4.50
2023-03-12T13:08:48.144Z,3.30
2023-03-12T13:11:20.458Z,5.00
2023-03-12T13:14:13.584Z,3.80
2023-03-12T13:16:44.577Z,5.90
2023-03-12T13:19:16.170Z,4.60
2023-03-12T13:21:59.343Z,5.80
2023-03-12T13:24:43.891Z,3.50
2023-03-12T13:27:19.167Z,4.00
2023-03-12T13:29:47.753Z,3.60
2023-03-12T13:32:34.652Z,2.90
2023-03-12T13:35:23.172Z,6.90
2023-03-12T13:37:51.330Z,5.60
2023-03-12T13:40:32.611Z,5.40
2023-03-12T13:43:14.259Z,4.60
2023-03-12T13:46:06.859Z,5.20
2023-03-12T13:48:36.519Z,6.10
2023-03-12T13:51:25.071Z,6.80
2023-03-12T13:53:58.264Z,4.40
2023-03-12T13:56:32.414Z,4.50
2023-03-12T13:59:03.834Z,5.00
2023-03-12T14:01:38.025Z,1.90
2023-03-12T14:04:12.674Z,3.00
2023-03-12T14:07:05.440Z,4.10
2023-03-12T14:09:57.696Z,4.60
2023-03-12T14:12:34.663Z,3.50
2023-03-12T14:15:21.290Z,5.60
2023-03-12T14:17:58.384Z,4.30
2023-03-12T14:20:28.436Z,4.40
2023-03-12T14:23:06.505Z,4.90
2023-03-12T14:25:46.728Z,8.80
2023-03-12T14:28:21.925Z,5.60
2023-03-12T14:31:01.481Z,3.80
2023-03-12T14:33:50.441Z,4.20
2023-03-12T14:36:22.937Z,5.20
2023-03-12T14:39:00.332Z,4.60
2023-03-12T14:41:38.452Z,3.50
2023-03-12T14:44:21.944Z,3.60
2023-03-12T14:47:10.242Z,3.30
2023-03-12T14:49:44.053Z,5.60
2023-03-12T14:54:54.174Z,4.80
2023-03-12T14:57:24.787Z,3.80
2023-03-12T15:00:00.965Z,7.50
2023-03-12T15:02:31.806Z,10.10
2023-03-12T15:05:02.311Z,10.30
2023-03-12T15:07:39.636Z,9.40
2023-03-12T15:10:18.520Z,10.80
2023-03-12T15:12:47.288Z,8.30
2023-03-12T15:15:42.893Z,8.30
2023-03-12T15:18:18.815Z,8.50
2023-03-12T15:20:51.055Z,7.80
2023-03-12T15:23:21.592Z,6.60
2023-03-12T15:26:13.551Z,8.00
2023-03-12T15:28:43.149Z,8.30
2023-03-12T15:31:16.883Z,10.60
2023-03-12T15:33:45.470Z,10.80
2023-03-12T15:36:19.901Z,9.20
2023-03-12T15:38:55.726Z,8.60
2023-03-12T15:41:40.356Z,9.60
2023-03-12T15:44:23.992Z,12.60
2023-03-12T15:47:09.996Z,15.40
2023-03-12T15:49:39.318Z,16.90
2023-03-12T15:52:28.226Z,15.10
2023-03-12T15:55:24.475Z,16.80
2023-03-12T15:57:57.082Z,14.00
2023-03-12T16:00:30.436Z,15.60
2023-03-12T16:03:08.205Z,17.30
2023-03-12T16:05:39.742Z,15.00
2023-03-12T16:08:37.269Z,15.10
2023-03-12T16:11:15.463Z,12.80
2023-03-12T16:13:45.332Z,14.40
2023-03-12T16:16:14.907Z,15.20
2023-03-12T16:18:44.107Z,12.00
2023-03-12T16:21:12.488Z,14.20
2023-03-12T16:23:40.891Z,20.30
2023-03-12T16:26:09.223Z,15.30
2023-03-12T16:28:37.687Z,17.20
2023-03-12T16:31:12.395Z,19.40
2023-03-12T16:33:41.835Z,20.80
2023-03-12T16:36:14.074Z,22.20
2023-03-12T16:38:44.185Z,25.40
2023-03-12T16:41:15.689Z,24.50
2023-03-12T16:43:48.736Z,18.60
2023-03-12T16:46:19.967Z,25.50
2023-03-12T16:48:55.857Z,26.70
2023-03-12T16:51:24.135Z,34.90
2023-03-12T16:54:06.932Z,49.90
2023-03-12T16:56:37.490Z,88.60
2023-03-12T16:59:11.328Z,85.90
2023-03-12T17:01:39.676Z,90.90
2023-03-12T17:04:11.440Z,47.10
2023-03-12T17:06:41.456Z,44.20
2023-03-12T17:09:09.726Z,40.80
2023-03-12T17:11:38.206Z,47.80
2023-03-12T17:14:23.149Z,39.20
2023-03-12T17:16:52.798Z,45.60
2023-03-12T17:19:21.060Z,44.10
2023-03-12T17:21:50.063Z,47.10
2023-03-12T17:24:19.684Z,54.10
2023-03-12T17:26:53.565Z,55.80
2023-03-12T17:29:21.742Z,65.00
2023-03-12T17:31:50.228Z,72.40
2023-03-12T17:34:18.512Z,66.90
2023-03-12T17:36:46.941Z,72.70
2023-03-12T17:39:15.394Z,71.30
2023-03-12T17:41:43.682Z,71.10
2023-03-12T17:44:14.885Z,69.60
2023-03-12T17:46:56.600Z,88.70
2023-03-12T17:49:28.838Z,80.80
2023-03-12T17:51:57.584Z,82.10
2023-03-12T17:54:25.808Z,78.20
2023-03-12T17:56:54.245Z,71.70
2023-03-12T17:59:22.466Z,69.60
2023-03-12T18:01:51.101Z,68.50
2023-03-12T18:04:19.457Z,65.80
2023-03-12T18:06:47.945Z,58.40
2023-03-12T18:09:16.100Z,63.90
2023-03-12T18:11:44.271Z,64.60
2023-03-12T18:14:12.662Z,61.10
2023-03-12T18:16:40.919Z,63.80
2023-03-12T18:19:10.435Z,69.70
2023-03-12T18:21:38.795Z,69.90
2023-03-12T18:24:13.978Z,83.40
2023-03-12T18:26:42.880Z,86.40
2023-03-12T18:29:11.339Z,87.00
2023-03-12T18:31:39.786Z,83.60
2023-03-12T18:34:08.358Z,91.00
2023-03-12T18:36:36.687Z,88.40
2023-03-12T18:39:06.323Z,78.60
2023-03-12T18:41:35.059Z,81.50
2023-03-12T18:44:04.459Z,75.50
2023-03-12T18:46:33.436Z,85.30
2023-03-12T18:49:09.287Z,79.30
2023-03-12T18:51:38.238Z,74.30
2023-03-12T18:54:06.879Z,70.70
2023-03-12T18:56:38.229Z,81.30
2023-03-12T18:59:09.852Z,100.10
2023-03-12T19:01:39.480Z,84.60
2023-03-12T19:04:09.948Z,75.50
2023-03-12T19:06:50.269Z,70.90
2023-03-12T19:09:20.544Z,67.00
2023-03-12T19:11:49.518Z,65.40
2023-03-12T19:14:18.130Z,65.40
2023-03-12T19:16:46.956Z,70.50
2023-03-12T19:19:15.812Z,67.90
2023-03-12T19:21:44.388Z,71.20
2023-03-12T19:24:12.784Z,68.80
2023-03-12T19:26:42.531Z,67.40
2023-03-12T19:29:11.308Z,72.40
2023-03-12T19:31:39.742Z,61.50
2023-03-12T19:34:07.945Z,69.70
2023-03-12T19:36:36.082Z,72.30
2023-03-12T19:39:11.947Z,66.10
2023-03-12T19:41:47.273Z,74.90
2023-03-12T19:44:15.504Z,72.80
2023-03-12T19:46:43.819Z,80.00
2023-03-12T19:49:12.114Z,76.30
2023-03-12T19:51:41.406Z,66.70
2023-03-12T19:54:09.755Z,68.50
2023-03-12T19:56:38.242Z,69.80
2023-03-12T19:59:06.450Z,57.90
2023-03-12T20:01:34.948Z,47.50
2023-03-12T20:04:08.014Z,50.50
2023-03-12T20:06:36.237Z,52.90
2023-03-12T20:09:05.657Z,44.10
2023-03-12T20:11:35.837Z,37.10
2023-03-12T20:14:05.117Z,37.10
2023-03-12T20:16:33.524Z,41.20
2023-03-12T20:19:01.808Z,43.90
2023-03-12T20:21:30.821Z,41.70
2023-03-12T20:23:59.220Z,40.90
2023-03-12T20:26:27.537Z,49.50
2023-03-12T20:28:56.412Z,44.60
2023-03-12T20:31:24.604Z,43.20
2023-03-12T20:33:53.207Z,48.20
2023-03-12T20:36:21.652Z,45.90
2023-03-12T20:38:50.156Z,44.90
2023-03-12T20:41:18.396Z,44.30
2023-03-12T20:43:48.600Z,52.00
2023-03-12T20:46:19.420Z,50.60
2023-03-12T20:48:47.689Z,44.50
2023-03-12T20:51:16.091Z,46.90
2023-03-12T20:53:44.912Z,46.50
2023-03-12T20:56:13.573Z,37.70
2023-03-12T20:58:45.576Z,39.20
2023-03-12T21:01:16.688Z,36.50
2023-03-12T21:03:48.636Z,30.20
2023-03-12T21:06:16.985Z,31.20
2023-03-12T21:08:45.159Z,31.30
2023-03-12T21:11:13.666Z,28.20
2023-03-12T21:13:42.334Z,24.60
2023-03-12T21:16:11.839Z,29.00
2023-03-12T21:18:43.023Z,21.50
2023-03-12T21:21:14.220Z,21.90
2023-03-12T21:23:42.622Z,19.00
2023-03-12T21:26:11.770Z,32.40
2023-03-12T21:28:39.976Z,24.70
2023-03-12T21:31:12.481Z,29.60
2023-03-12T21:33:42.983Z,30.00
2023-03-12T21:36:14.288Z,31.50
2023-03-12T21:38:43.215Z,29.10
2023-03-12T21:41:14.897Z,26.80
2023-03-12T21:43:44.255Z,28.50
2023-03-12T21:46:19.121Z,29.10
2023-03-12T21:48:48.422Z,26.00
2023-03-12T21:51:18.036Z,33.80
2023-03-12T21:53:46.273Z,27.90
2023-03-12T21:56:14.408Z,26.80
2023-03-12T21:58:42.623Z,28.40
2023-03-12T22:01:17.358Z,30.70
2023-03-12T22:03:46.559Z,30.30
2023-03-12T22:06:16.119Z,36.40
2023-03-12T22:08:47.124Z,26.40
2023-03-12T22:11:16.225Z,31.60
2023-03-12T22:13:44.957Z,29.30
2023-03-12T22:16:14.477Z,30.60
2023-03-12T22:18:45.417Z,26.90
2023-03-12T22:21:21.773Z,24.30
2023-03-12T22:23:52.957Z,27.20
2023-03-12T22:26:23.096Z,24.50
2023-03-12T22:28:53.371Z,24.10
2023-03-12T22:31:23.120Z,26.00
2023-03-12T22:33:51.774Z,30.10
2023-03-12T22:36:21.020Z,26.90
2023-03-12T22:38:49.931Z,28.90
2023-03-12T22:41:18.342Z,24.80
2023-03-12T22:43:47.992Z,27.20
2023-03-12T22:46:18.651Z,23.60
2023-03-12T22:48:51.549Z,25.40
2023-03-12T22:51:19.794Z,27.00
2023-03-12T22:53:48.373Z,29.10
2023-03-12T22:56:18.139Z,26.20
2023-03-12T22:58:46.441Z,23.30
2023-03-12T23:01:20.355Z,20.80
2023-03-12T23:03:50.081Z,21.80
2023-03-12T23:06:23.846Z,21.10
2023-03-12T23:08:54.878Z,19.50
2023-03-12T23:11:25.573Z,19.80
2023-03-12T23:13:54.482Z,20.00
2023-03-12T23:16:25.638Z,18.30
2023-03-12T23:18:55.377Z,19.80
2023-03-12T23:21:24.695Z,18.40
2023-03-12T23:23:53.200Z,18.80
2023-03-12T23:26:24.576Z,16.20
2023-03-12T23:28:58.071Z,18.80
2023-03-12T23:31:28.678Z,17.20
2023-03-12T23:33:58.651Z,16.70
2023-03-12T23:36:28.959Z,20.60
2023-03-12T23:38:57.332Z,19.50
2023-03-12T23:41:29.562Z,18.40
2023-03-12T23:43:58.917Z,19.50
2023-03-12T23:46:27.598Z,21.30
2023-03-12T23:48:56.380Z,19.00
2023-03-12T23:51:30.164Z,19.00
2023-03-12T23:54:01.372Z,19.70
2023-03-12T23:56:37.853Z,18.30
2023-03-12T23:59:08.459Z,18.80
